sensor_id;sensor_type;location;lat;lon;timestamp;temperature;humidity
22666;DHT22;11499;49.486;11.104;2023-05-10T00:01:31;15.00;90.20
22666;DHT22;11499;49.486;11.104;2023-05-10T00:03:57;15.10;90.90
22666;DHT22;11499;49.486;11.104;2023-05-10T00:06:22;15.10;91.80
22666;DHT22;11499;49.486;11.104;2023-05-10T00:08:48;15.10;92.50
22666;DHT22;11499;49.486;11.104;2023-05-10T00:14:15;15.10;93.90
22666;DHT22;11499;49.486;11.104;2023-05-10T00:16:40;15.00;95.10
22666;DHT22;11499;49.486;11.104;2023-05-10T00:19:06;15.00;96.20
22666;DHT22;11499;49.486;11.104;2023-05-10T00:21:31;14.90;96.90
22666;DHT22;11499;49.486;11.104;2023-05-10T00:23:59;14.90;97.70
22666;DHT22;11499;49.486;11.104;2023-05-10T00:26:24;14.80;98.80
22666;DHT22;11499;49.486;11.104;2023-05-10T00:28:50;14.70;99.90
22666;DHT22;11499;49.486;11.104;2023-05-10T00:31:15;14.70;99.90
22666;DHT22;11499;49.486;11.104;2023-05-10T00:33:41;14.70;99.90
22666;DHT22;11499;49.486;11.104;2023-05-10T00:36:07;14.70;99.90
22666;DHT22;11499;49.486;11.104;2023-05-10T00:41:22;14.60;99.90
22666;DHT22;11499;49.486;11.104;2023-05-10T00:43:47;14.60;99.90
22666;DHT22;11499;49.486;11.104;2023-05-10T00:46:14;14.50;99.90
22666;DHT22;11499;49.486;11.104;2023-05-10T00:48:40;14.40;99.90
22666;DHT22;11499;49.486;11.104;2023-05-10T00:51:06;14.20;99.90
22666;DHT22;11499;49.486;11.104;2023-05-10T00:53:32;14.10;99.90
22666;DHT22;11499;49.486;11.104;2023-05-10T00:55:58;13.90;99.90
22666;DHT22;11499;49.486;11.104;2023-05-10T00:58:24;13.70;99.90
22666;DHT22;11499;49.486;11.104;2023-05-10T01:00:55;13.70;99.90
22666;DHT22;11499;49.486;11.104;2023-05-10T01:03:21;13.70;99.90
22666;DHT22;11499;49.486;11.104;2023-05-10T01:08:28;13.70;99.90
22666;DHT22;11499;49.486;11.104;2023-05-10T01:10:54;13.60;99.90
22666;DHT22;11499;49.486;11.104;2023-05-10T01:13:40;13.70;99.90
22666;DHT22;11499;49.486;11.104;2023-05-10T01:16:07;13.80;99.90
22666;DHT22;11499;49.486;11.104;2023-05-10T01:18:40;13.80;99.90
22666;DHT22;11499;49.486;11.104;2023-05-10T01:21:33;13.90;99.90
22666;DHT22;11499;49.486;11.104;2023-05-10T01:24:38;13.90;99.90
22666;DHT22;11499;49.486;11.104;2023-05-10T01:27:25;14.00;99.90
22666;DHT22;11499;49.486;11.104;2023-05-10T01:30:20;14.00;99.90
22666;DHT22;11499;49.486;11.104;2023-05-10T01:35:42;14.00;99.90
22666;DHT22;11499;49.486;11.104;2023-05-10T01:41:13;13.90;99.90
22666;DHT22;11499;49.486;11.104;2023-05-10T01:43:59;13.80;99.90
22666;DHT22;11499;49.486;11.104;2023-05-10T01:46:35;13.80;99.90
22666;DHT22;11499;49.486;11.104;2023-05-10T01:49:03;13.90;99.90
22666;DHT22;11499;49.486;11.104;2023-05-10T01:51:36;13.90;99.90
22666;DHT22;11499;49.486;11.104;2023-05-10T01:54:05;13.80;99.90
22666;DHT22;11499;49.486;11.104;2023-05-10T01:56:33;13.80;99.90
22666;DHT22;11499;49.486;11.104;2023-05-10T01:59:00;13.80;99.90
22666;DHT22;11499;49.486;11.104;2023-05-10T02:03:43;13.80;99.90
22666;DHT22;11499;49.486;11.104;2023-05-10T02:06:10;13.80;99.90
22666;DHT22;11499;49.486;11.104;2023-05-10T02:08:38;13.80;99.90
22666;DHT22;11499;49.486;11.104;2023-05-10T02:11:05;13.80;99.90
22666;DHT22;11499;49.486;11.104;2023-05-10T02:13:33;13.90;99.90
22666;DHT22;11499;49.486;11.104;2023-05-10T02:15:59;13.90;99.90
22666;DHT22;11499;49.486;11.104;2023-05-10T02:18:27;14.00;99.90
22666;DHT22;11499;49.486;11.104;2023-05-10T02:20:53;14.00;99.90
22666;DHT22;11499;49.486;11.104;2023-05-10T02:23:20;14.00;99.90
22666;DHT22;11499;49.486;11.104;2023-05-10T02:25:48;14.00;99.90
22666;DHT22;11499;49.486;11.104;2023-05-10T02:30:55;14.00;99.90
22666;DHT22;11499;49.486;11.104;2023-05-10T02:33:21;14.10;99.90
22666;DHT22;11499;49.486;11.104;2023-05-10T02:35:48;14.10;99.90
22666;DHT22;11499;49.486;11.104;2023-05-10T02:38:14;14.10;99.90
22666;DHT22;11499;49.486;11.104;2023-05-10T02:40:41;14.10;99.90
22666;DHT22;11499;49.486;11.104;2023-05-10T02:43:11;14.10;99.90
22666;DHT22;11499;49.486;11.104;2023-05-10T02:45:37;14.20;99.90
22666;DHT22;11499;49.486;11.104;2023-05-10T02:48:04;14.20;99.90
22666;DHT22;11499;49.486;11.104;2023-05-10T02:50:31;14.20;99.90
22666;DHT22;11499;49.486;11.104;2023-05-10T02:53:01;14.20;99.90
22666;DHT22;11499;49.486;11.104;2023-05-10T02:58:30;14.30;99.90
22666;DHT22;11499;49.486;11.104;2023-05-10T03:00:55;14.40;99.90
22666;DHT22;11499;49.486;11.104;2023-05-10T03:03:21;14.40;99.90
22666;DHT22;11499;49.486;11.104;2023-05-10T03:05:46;14.40;99.90
22666;DHT22;11499;49.486;11.104;2023-05-10T03:08:12;14.30;99.90
22666;DHT22;11499;49.486;11.104;2023-05-10T03:16:42;14.20;99.90
22666;DHT22;11499;49.486;11.104;2023-05-10T03:19:24;14.10;99.90
22666;DHT22;11499;49.486;11.104;2023-05-10T03:21:52;14.00;99.90
22666;DHT22;11499;49.486;11.104;2023-05-10T03:25:53;14.00;99.90
22666;DHT22;11499;49.486;11.104;2023-05-10T03:28:18;13.80;99.90
22666;DHT22;11499;49.486;11.104;2023-05-10T03:30:46;13.80;99.90
22666;DHT22;11499;49.486;11.104;2023-05-10T03:33:12;13.80;99.90
22666;DHT22;11499;49.486;11.104;2023-05-10T03:35:38;13.70;99.90
22666;DHT22;11499;49.486;11.104;2023-05-10T03:38:04;13.70;99.90
22666;DHT22;11499;49.486;11.104;2023-05-10T03:40:30;13.70;99.90
22666;DHT22;11499;49.486;11.104;2023-05-10T03:43:00;13.70;99.90
22666;DHT22;11499;49.486;11.104;2023-05-10T03:45:26;13.60;99.90
22666;DHT22;11499;49.486;11.104;2023-05-10T03:47:52;13.60;99.90
22666;DHT22;11499;49.486;11.104;2023-05-10T03:52:35;13.60;99.90
22666;DHT22;11499;49.486;11.104;2023-05-10T03:55:01;13.50;99.90
22666;DHT22;11499;49.486;11.104;2023-05-10T03:57:28;13.50;99.90
22666;DHT22;11499;49.486;11.104;2023-05-10T03:59:54;13.50;99.90
22666;DHT22;11499;49.486;11.104;2023-05-10T04:02:20;13.50;99.90
22666;DHT22;11499;49.486;11.104;2023-05-10T04:04:45;13.50;99.90
22666;DHT22;11499;49.486;11.104;2023-05-10T04:07:11;13.50;99.90
22666;DHT22;11499;49.486;11.104;2023-05-10T04:09:36;13.40;99.90
22666;DHT22;11499;49.486;11.104;2023-05-10T04:12:02;13.40;99.90
22666;DHT22;11499;49.486;11.104;2023-05-10T04:14:28;13.40;99.90
22666;DHT22;11499;49.486;11.104;2023-05-10T04:19:21;13.40;99.90
22666;DHT22;11499;49.486;11.104;2023-05-10T04:21:46;13.40;99.90
22666;DHT22;11499;49.486;11.104;2023-05-10T04:24:12;13.40;99.90
22666;DHT22;11499;49.486;11.104;2023-05-10T04:26:37;13.40;99.90
22666;DHT22;11499;49.486;11.104;2023-05-10T04:29:03;13.40;99.90
22666;DHT22;11499;49.486;11.104;2023-05-10T04:31:28;13.40;99.90
22666;DHT22;11499;49.486;11.104;2023-05-10T04:33:54;13.30;99.90
22666;DHT22;11499;49.486;11.104;2023-05-10T04:36:19;13.40;99.90
22666;DHT22;11499;49.486;11.104;2023-05-10T04:38:45;13.30;99.90
22666;DHT22;11499;49.486;11.104;2023-05-10T04:41:11;13.40;99.90
22666;DHT22;11499;49.486;11.104;2023-05-10T04:46:38;13.40;99.90
22666;DHT22;11499;49.486;11.104;2023-05-10T04:49:04;13.40;99.90
22666;DHT22;11499;49.486;11.104;2023-05-10T04:51:29;13.40;99.90
22666;DHT22;11499;49.486;11.104;2023-05-10T04:53:55;13.40;99.90
22666;DHT22;11499;49.486;11.104;2023-05-10T04:56:21;13.40;99.90
22666;DHT22;11499;49.486;11.104;2023-05-10T04:58:47;13.50;99.90
22666;DHT22;11499;49.486;11.104;2023-05-10T05:01:12;13.50;99.90
22666;DHT22;11499;49.486;11.104;2023-05-10T05:03:38;13.50;99.90
22666;DHT22;11499;49.486;11.104;2023-05-10T05:06:04;13.50;99.90
22666;DHT22;11499;49.486;11.104;2023-05-10T05:08:30;13.50;99.90
22666;DHT22;11499;49.486;11.104;2023-05-10T05:13:31;13.60;99.90
22666;DHT22;11499;49.486;11.104;2023-05-10T05:15:56;13.50;99.90
22666;DHT22;11499;49.486;11.104;2023-05-10T05:18:22;13.50;99.90
22666;DHT22;11499;49.486;11.104;2023-05-10T05:20:47;13.70;99.90
22666;DHT22;11499;49.486;11.104;2023-05-10T05:23:13;13.60;99.90
22666;DHT22;11499;49.486;11.104;2023-05-10T05:25:38;13.70;99.90
22666;DHT22;11499;49.486;11.104;2023-05-10T05:28:04;13.80;99.90
22666;DHT22;11499;49.486;11.104;2023-05-10T05:30:29;13.90;99.90
22666;DHT22;11499;49.486;11.104;2023-05-10T05:32:55;14.00;99.90
22666;DHT22;11499;49.486;11.104;2023-05-10T05:35:20;14.00;99.90
22666;DHT22;11499;49.486;11.104;2023-05-10T05:40:54;13.90;99.90
22666;DHT22;11499;49.486;11.104;2023-05-10T05:43:20;13.90;99.90
22666;DHT22;11499;49.486;11.104;2023-05-10T05:45:46;14.10;99.90
22666;DHT22;11499;49.486;11.104;2023-05-10T05:48:11;14.20;99.90
22666;DHT22;11499;49.486;11.104;2023-05-10T05:50:36;14.20;99.90
22666;DHT22;11499;49.486;11.104;2023-05-10T05:53:02;14.20;99.90
22666;DHT22;11499;49.486;11.104;2023-05-10T05:55:28;14.20;99.90
22666;DHT22;11499;49.486;11.104;2023-05-10T05:57:54;14.00;99.90
22666;DHT22;11499;49.486;11.104;2023-05-10T06:00:20;14.10;99.90
22666;DHT22;11499;49.486;11.104;2023-05-10T06:02:46;14.00;99.90
22666;DHT22;11499;49.486;11.104;2023-05-10T06:08:22;14.10;99.90
22666;DHT22;11499;49.486;11.104;2023-05-10T06:10:48;14.00;99.90
22666;DHT22;11499;49.486;11.104;2023-05-10T06:13:13;14.00;99.90
22666;DHT22;11499;49.486;11.104;2023-05-10T06:15:39;14.30;99.90
22666;DHT22;11499;49.486;11.104;2023-05-10T06:18:05;14.20;99.90
22666;DHT22;11499;49.486;11.104;2023-05-10T06:20:31;14.40;99.90
22666;DHT22;11499;49.486;11.104;2023-05-10T06:22:57;14.50;99.90
22666;DHT22;11499;49.486;11.104;2023-05-10T06:25:23;14.40;99.90
22666;DHT22;11499;49.486;11.104;2023-05-10T06:27:49;14.40;99.90
22666;DHT22;11499;49.486;11.104;2023-05-10T06:30:14;14.20;99.90
22666;DHT22;11499;49.486;11.104;2023-05-10T06:35:39;14.40;99.90
22666;DHT22;11499;49.486;11.104;2023-05-10T06:38:05;14.50;99.90
22666;DHT22;11499;49.486;11.104;2023-05-10T06:40:30;14.30;99.90
22666;DHT22;11499;49.486;11.104;2023-05-10T06:42:56;14.50;99.90
22666;DHT22;11499;49.486;11.104;2023-05-10T06:45:22;14.50;99.90
22666;DHT22;11499;49.486;11.104;2023-05-10T06:47:47;14.80;99.90
22666;DHT22;11499;49.486;11.104;2023-05-10T06:50:13;14.90;99.90
22666;DHT22;11499;49.486;11.104;2023-05-10T06:52:39;15.20;99.90
22666;DHT22;11499;49.486;11.104;2023-05-10T06:55:05;15.30;99.90
22666;DHT22;11499;49.486;11.104;2023-05-10T06:57:31;15.60;99.90
22666;DHT22;11499;49.486;11.104;2023-05-10T07:03:25;15.50;99.90
22666;DHT22;11499;49.486;11.104;2023-05-10T07:05:51;15.30;99.90
22666;DHT22;11499;49.486;11.104;2023-05-10T07:08:16;15.40;99.90
22666;DHT22;11499;49.486;11.104;2023-05-10T07:10:42;15.60;99.90
22666;DHT22;11499;49.486;11.104;2023-05-10T07:13:08;15.80;99.90
22666;DHT22;11499;49.486;11.104;2023-05-10T07:15:33;16.10;99.90
22666;DHT22;11499;49.486;11.104;2023-05-10T07:17:59;16.00;99.90
22666;DHT22;11499;49.486;11.104;2023-05-10T07:20:25;16.40;99.90
22666;DHT22;11499;49.486;11.104;2023-05-10T07:22:50;15.80;99.90
22666;DHT22;11499;49.486;11.104;2023-05-10T07:28:04;15.70;99.90
22666;DHT22;11499;49.486;11.104;2023-05-10T07:30:30;15.60;99.90
22666;DHT22;11499;49.486;11.104;2023-05-10T07:32:56;15.60;99.90
22666;DHT22;11499;49.486;11.104;2023-05-10T07:35:21;16.00;99.90
22666;DHT22;11499;49.486;11.104;2023-05-10T07:37:47;16.10;99.90
22666;DHT22;11499;49.486;11.104;2023-05-10T07:40:12;16.30;99.90
22666;DHT22;11499;49.486;11.104;2023-05-10T07:42:38;15.90;99.90
22666;DHT22;11499;49.486;11.104;2023-05-10T07:45:04;15.80;99.90
22666;DHT22;11499;49.486;11.104;2023-05-10T07:47:30;15.80;99.90
22666;DHT22;11499;49.486;11.104;2023-05-10T07:49:55;15.80;99.90
22666;DHT22;11499;49.486;11.104;2023-05-10T07:52:21;15.50;99.90
22666;DHT22;11499;49.486;11.104;2023-05-10T07:57:07;15.10;99.90
22666;DHT22;11499;49.486;11.104;2023-05-10T07:59:32;15.20;99.90
22666;DHT22;11499;49.486;11.104;2023-05-10T08:01:58;15.10;99.90
22666;DHT22;11499;49.486;11.104;2023-05-10T08:04:23;15.00;99.90
22666;DHT22;11499;49.486;11.104;2023-05-10T08:06:49;15.20;99.90
22666;DHT22;11499;49.486;11.104;2023-05-10T08:09:15;15.30;99.90
22666;DHT22;11499;49.486;11.104;2023-05-10T08:11:41;15.30;99.90
22666;DHT22;11499;49.486;11.104;2023-05-10T08:14:06;15.20;99.90
22666;DHT22;11499;49.486;11.104;2023-05-10T08:16:32;15.10;99.90
22666;DHT22;11499;49.486;11.104;2023-05-10T08:18:57;15.10;99.90
22666;DHT22;11499;49.486;11.104;2023-05-10T08:24:05;15.10;99.90
22666;DHT22;11499;49.486;11.104;2023-05-10T08:26:32;15.50;99.90
22666;DHT22;11499;49.486;11.104;2023-05-10T08:28:57;15.90;99.90
22666;DHT22;11499;49.486;11.104;2023-05-10T08:31:23;16.20;99.90
22666;DHT22;11499;49.486;11.104;2023-05-10T08:33:48;15.90;99.90
22666;DHT22;11499;49.486;11.104;2023-05-10T08:36:14;15.90;99.90
22666;DHT22;11499;49.486;11.104;2023-05-10T08:38:44;16.30;99.90
22666;DHT22;11499;49.486;11.104;2023-05-10T08:41:11;16.40;99.90
22666;DHT22;11499;49.486;11.104;2023-05-10T08:43:36;16.60;99.90
22666;DHT22;11499;49.486;11.104;2023-05-10T08:46:05;17.50;99.90
22666;DHT22;11499;49.486;11.104;2023-05-10T08:48:36;17.60;99.90
22666;DHT22;11499;49.486;11.104;2023-05-10T08:51:03;17.20;99.90
22666;DHT22;11499;49.486;11.104;2023-05-10T08:56:10;17.10;99.90
22666;DHT22;11499;49.486;11.104;2023-05-10T08:58:36;17.30;99.90
22666;DHT22;11499;49.486;11.104;2023-05-10T09:01:03;17.10;99.90
22666;DHT22;11499;49.486;11.104;2023-05-10T09:03:29;17.50;99.90
22666;DHT22;11499;49.486;11.104;2023-05-10T09:05:55;17.60;99.90
22666;DHT22;11499;49.486;11.104;2023-05-10T09:08:23;18.00;99.90
22666;DHT22;11499;49.486;11.104;2023-05-10T09:10:51;17.90;99.90
22666;DHT22;11499;49.486;11.104;2023-05-10T09:13:17;17.90;99.90
22666;DHT22;11499;49.486;11.104;2023-05-10T09:15:44;17.30;99.90
22666;DHT22;11499;49.486;11.104;2023-05-10T09:18:10;17.10;99.90
22666;DHT22;11499;49.486;11.104;2023-05-10T09:23:10;17.10;99.90
22666;DHT22;11499;49.486;11.104;2023-05-10T09:25:35;16.60;99.90
22666;DHT22;11499;49.486;11.104;2023-05-10T09:28:06;16.10;99.90
22666;DHT22;11499;49.486;11.104;2023-05-10T09:30:31;15.60;99.90
22666;DHT22;11499;49.486;11.104;2023-05-10T09:32:58;15.20;99.90
22666;DHT22;11499;49.486;11.104;2023-05-10T09:35:28;14.90;99.90
22666;DHT22;11499;49.486;11.104;2023-05-10T09:37:56;14.50;99.90
22666;DHT22;11499;49.486;11.104;2023-05-10T09:40:27;14.20;99.90
22666;DHT22;11499;49.486;11.104;2023-05-10T09:43:09;14.10;99.90
22666;DHT22;11499;49.486;11.104;2023-05-10T09:45:36;14.30;99.90
22666;DHT22;11499;49.486;11.104;2023-05-10T09:50:25;14.60;99.90
22666;DHT22;11499;49.486;11.104;2023-05-10T09:52:59;15.20;99.90
22666;DHT22;11499;49.486;11.104;2023-05-10T09:55:37;15.40;99.90
22666;DHT22;11499;49.486;11.104;2023-05-10T09:58:03;15.60;99.90
22666;DHT22;11499;49.486;11.104;2023-05-10T10:00:44;15.80;99.90
22666;DHT22;11499;49.486;11.104;2023-05-10T10:03:15;16.20;99.90
22666;DHT22;11499;49.486;11.104;2023-05-10T10:05:42;16.80;99.90
22666;DHT22;11499;49.486;11.104;2023-05-10T10:08:08;16.80;99.90
22666;DHT22;11499;49.486;11.104;2023-05-10T10:10:34;17.10;99.90
22666;DHT22;11499;49.486;11.104;2023-05-10T10:13:00;17.50;99.90
22666;DHT22;11499;49.486;11.104;2023-05-10T10:17:54;17.40;99.90
22666;DHT22;11499;49.486;11.104;2023-05-10T10:20:21;17.50;99.90
22666;DHT22;11499;49.486;11.104;2023-05-10T10:22:48;17.30;99.90
22666;DHT22;11499;49.486;11.104;2023-05-10T10:25:15;17.70;99.90
22666;DHT22;11499;49.486;11.104;2023-05-10T10:30:35;18.40;99.90
22666;DHT22;11499;49.486;11.104;2023-05-10T10:33:10;18.70;99.90
22666;DHT22;11499;49.486;11.104;2023-05-10T10:35:38;18.80;99.90
22666;DHT22;11499;49.486;11.104;2023-05-10T10:41:48;18.80;99.90
22666;DHT22;11499;49.486;11.104;2023-05-10T10:43:48;19.20;99.90
22666;DHT22;11499;49.486;11.104;2023-05-10T10:46:15;19.50;99.30
22666;DHT22;11499;49.486;11.104;2023-05-10T10:48:48;18.90;99.90
22666;DHT22;11499;49.486;11.104;2023-05-10T10:51:14;19.30;99.90
22666;DHT22;11499;49.486;11.104;2023-05-10T10:53:40;19.30;99.50
22666;DHT22;11499;49.486;11.104;2023-05-10T10:56:15;18.80;99.90
22666;DHT22;11499;49.486;11.104;2023-05-10T10:58:41;18.70;99.90
22666;DHT22;11499;49.486;11.104;2023-05-10T11:01:11;18.70;99.90
22666;DHT22;11499;49.486;11.104;2023-05-10T11:03:37;18.20;99.90
22666;DHT22;11499;49.486;11.104;2023-05-10T11:06:03;17.80;99.90
22666;DHT22;11499;49.486;11.104;2023-05-10T11:08:30;17.60;99.90
22666;DHT22;11499;49.486;11.104;2023-05-10T11:12:24;17.50;99.90
22666;DHT22;11499;49.486;11.104;2023-05-10T11:14:50;17.40;99.90
22666;DHT22;11499;49.486;11.104;2023-05-10T11:17:24;17.20;99.90
22666;DHT22;11499;49.486;11.104;2023-05-10T11:20:22;17.00;99.90
22666;DHT22;11499;49.486;11.104;2023-05-10T11:22:53;16.90;99.90
22666;DHT22;11499;49.486;11.104;2023-05-10T11:25:20;17.20;99.90
22666;DHT22;11499;49.486;11.104;2023-05-10T11:27:47;17.00;99.90
22666;DHT22;11499;49.486;11.104;2023-05-10T11:30:14;16.90;99.90
22666;DHT22;11499;49.486;11.104;2023-05-10T11:32:40;17.30;99.90
22666;DHT22;11499;49.486;11.104;2023-05-10T11:35:10;17.40;99.90
22666;DHT22;11499;49.486;11.104;2023-05-10T11:40:18;17.00;99.90
22666;DHT22;11499;49.486;11.104;2023-05-10T11:42:46;17.00;99.90
22666;DHT22;11499;49.486;11.104;2023-05-10T11:45:11;17.10;99.90
22666;DHT22;11499;49.486;11.104;2023-05-10T11:47:37;17.40;99.90
22666;DHT22;11499;49.486;11.104;2023-05-10T11:50:05;17.40;99.90
22666;DHT22;11499;49.486;11.104;2023-05-10T11:52:35;17.00;99.90
22666;DHT22;11499;49.486;11.104;2023-05-10T11:55:02;17.10;99.90
22666;DHT22;11499;49.486;11.104;2023-05-10T11:57:28;17.30;99.90
22666;DHT22;11499;49.486;11.104;2023-05-10T11:59:54;17.50;99.90
22666;DHT22;11499;49.486;11.104;2023-05-10T12:02:20;17.90;99.90
22666;DHT22;11499;49.486;11.104;2023-05-10T12:08:14;18.30;99.90
22666;DHT22;11499;49.486;11.104;2023-05-10T12:10:40;18.40;99.70
22666;DHT22;11499;49.486;11.104;2023-05-10T12:13:05;18.30;99.90
22666;DHT22;11499;49.486;11.104;2023-05-10T12:15:35;18.50;99.90
22666;DHT22;11499;49.486;11.104;2023-05-10T12:18:01;18.00;99.90
22666;DHT22;11499;49.486;11.104;2023-05-10T12:20:28;18.40;99.90
22666;DHT22;11499;49.486;11.104;2023-05-10T12:22:58;18.10;99.90
22666;DHT22;11499;49.486;11.104;2023-05-10T12:25:33;18.30;99.90
22666;DHT22;11499;49.486;11.104;2023-05-10T12:30:38;18.80;99.90
22666;DHT22;11499;49.486;11.104;2023-05-10T12:33:09;18.80;99.70
22666;DHT22;11499;49.486;11.104;2023-05-10T12:35:52;18.60;99.90
22666;DHT22;11499;49.486;11.104;2023-05-10T12:41:06;18.80;99.60
22666;DHT22;11499;49.486;11.104;2023-05-10T12:43:32;18.80;99.30
22666;DHT22;11499;49.486;11.104;2023-05-10T12:45:58;18.80;99.10
22666;DHT22;11499;49.486;11.104;2023-05-10T12:48:24;18.60;99.30
22666;DHT22;11499;49.486;11.104;2023-05-10T12:50:49;18.70;99.20
22666;DHT22;11499;49.486;11.104;2023-05-10T12:53:16;18.90;99.30
22666;DHT22;11499;49.486;11.104;2023-05-10T12:58:06;19.40;98.60
22666;DHT22;11499;49.486;11.104;2023-05-10T13:00:31;19.00;98.30
22666;DHT22;11499;49.486;11.104;2023-05-10T13:02:57;18.70;98.00
22666;DHT22;11499;49.486;11.104;2023-05-10T13:05:22;18.80;98.40
22666;DHT22;11499;49.486;11.104;2023-05-10T13:07:48;19.00;97.80
22666;DHT22;11499;49.486;11.104;2023-05-10T13:10:13;19.00;98.30
22666;DHT22;11499;49.486;11.104;2023-05-10T13:12:39;19.40;98.20
22666;DHT22;11499;49.486;11.104;2023-05-10T13:15:05;19.20;97.40
22666;DHT22;11499;49.486;11.104;2023-05-10T13:17:32;19.10;97.50
22666;DHT22;11499;49.486;11.104;2023-05-10T13:19:57;18.80;98.50
22666;DHT22;11499;49.486;11.104;2023-05-10T13:25:08;17.90;99.60
22666;DHT22;11499;49.486;11.104;2023-05-10T13:27:33;17.50;99.60
22666;DHT22;11499;49.486;11.104;2023-05-10T13:29:59;17.00;98.20
22666;DHT22;11499;49.486;11.104;2023-05-10T13:32:25;16.90;98.60
22666;DHT22;11499;49.486;11.104;2023-05-10T13:34:51;16.50;99.90
22666;DHT22;11499;49.486;11.104;2023-05-10T13:37:16;16.40;99.90
22666;DHT22;11499;49.486;11.104;2023-05-10T13:39:42;16.40;99.90
22666;DHT22;11499;49.486;11.104;2023-05-10T13:42:08;16.50;99.90
22666;DHT22;11499;49.486;11.104;2023-05-10T13:44:33;16.60;99.90
22666;DHT22;11499;49.486;11.104;2023-05-10T13:47:54;16.50;99.90
22666;DHT22;11499;49.486;11.104;2023-05-10T13:50:20;17.10;99.90
22666;DHT22;11499;49.486;11.104;2023-05-10T13:52:45;17.50;99.90
22666;DHT22;11499;49.486;11.104;2023-05-10T13:55:12;17.80;99.90
22666;DHT22;11499;49.486;11.104;2023-05-10T13:57:38;18.20;99.90
22666;DHT22;11499;49.486;11.104;2023-05-10T14:00:04;18.70;99.90
22666;DHT22;11499;49.486;11.104;2023-05-10T14:02:30;19.10;99.90
22666;DHT22;11499;49.486;11.104;2023-05-10T14:04:55;19.60;99.90
22666;DHT22;11499;49.486;11.104;2023-05-10T14:07:21;19.80;99.90
22666;DHT22;11499;49.486;11.104;2023-05-10T14:09:47;19.90;99.90
22666;DHT22;11499;49.486;11.104;2023-05-10T14:14:25;19.80;99.90
22666;DHT22;11499;49.486;11.104;2023-05-10T14:16:51;19.80;99.90
22666;DHT22;11499;49.486;11.104;2023-05-10T14:19:16;19.50;99.90
22666;DHT22;11499;49.486;11.104;2023-05-10T14:21:42;19.70;99.90
22666;DHT22;11499;49.486;11.104;2023-05-10T14:24:08;19.20;99.90
22666;DHT22;11499;49.486;11.104;2023-05-10T14:26:34;19.40;99.90
22666;DHT22;11499;49.486;11.104;2023-05-10T14:29:00;19.10;99.90
22666;DHT22;11499;49.486;11.104;2023-05-10T14:31:25;18.70;99.90
22666;DHT22;11499;49.486;11.104;2023-05-10T14:36:30;18.10;99.90
22666;DHT22;11499;49.486;11.104;2023-05-10T14:38:56;18.00;99.90
22666;DHT22;11499;49.486;11.104;2023-05-10T14:41:22;18.10;99.90
22666;DHT22;11499;49.486;11.104;2023-05-10T14:43:48;17.90;99.90
22666;DHT22;11499;49.486;11.104;2023-05-10T14:46:13;18.10;99.90
22666;DHT22;11499;49.486;11.104;2023-05-10T14:48:39;18.10;99.90
22666;DHT22;11499;49.486;11.104;2023-05-10T14:51:04;18.10;99.90
22666;DHT22;11499;49.486;11.104;2023-05-10T14:53:30;18.30;99.90
22666;DHT22;11499;49.486;11.104;2023-05-10T14:55:56;18.10;99.90
22666;DHT22;11499;49.486;11.104;2023-05-10T14:58:21;18.20;99.90
22666;DHT22;11499;49.486;11.104;2023-05-10T15:02:31;18.00;99.90
22666;DHT22;11499;49.486;11.104;2023-05-10T15:04:57;18.00;99.50
22666;DHT22;11499;49.486;11.104;2023-05-10T15:07:23;17.80;99.90
22666;DHT22;11499;49.486;11.104;2023-05-10T15:09:49;17.90;99.90
22666;DHT22;11499;49.486;11.104;2023-05-10T15:12:15;17.70;99.90
22666;DHT22;11499;49.486;11.104;2023-05-10T15:14:40;17.60;99.90
22666;DHT22;11499;49.486;11.104;2023-05-10T15:17:06;17.30;99.90
22666;DHT22;11499;49.486;11.104;2023-05-10T15:19:32;17.20;99.90
22666;DHT22;11499;49.486;11.104;2023-05-10T15:21:58;16.60;99.90
22666;DHT22;11499;49.486;11.104;2023-05-10T15:24:24;16.20;99.90
22666;DHT22;11499;49.486;11.104;2023-05-10T15:29:38;16.00;99.90
22666;DHT22;11499;49.486;11.104;2023-05-10T15:32:03;16.20;99.90
22666;DHT22;11499;49.486;11.104;2023-05-10T15:34:29;16.10;99.90
22666;DHT22;11499;49.486;11.104;2023-05-10T15:36:54;16.20;99.90
22666;DHT22;11499;49.486;11.104;2023-05-10T15:39:20;16.10;99.90
22666;DHT22;11499;49.486;11.104;2023-05-10T15:41:45;16.00;99.90
22666;DHT22;11499;49.486;11.104;2023-05-10T15:44:12;16.10;99.90
22666;DHT22;11499;49.486;11.104;2023-05-10T15:46:38;16.10;99.90
22666;DHT22;11499;49.486;11.104;2023-05-10T15:49:03;16.20;99.90
22666;DHT22;11499;49.486;11.104;2023-05-10T15:51:30;16.20;99.90
22666;DHT22;11499;49.486;11.104;2023-05-10T15:56:46;16.20;99.90
22666;DHT22;11499;49.486;11.104;2023-05-10T15:59:11;16.40;99.90
22666;DHT22;11499;49.486;11.104;2023-05-10T16:01:37;16.50;99.90
22666;DHT22;11499;49.486;11.104;2023-05-10T16:04:03;16.70;99.90
22666;DHT22;11499;49.486;11.104;2023-05-10T16:06:29;16.50;99.90
22666;DHT22;11499;49.486;11.104;2023-05-10T16:08:55;16.80;99.90
22666;DHT22;11499;49.486;11.104;2023-05-10T16:11:20;17.10;99.90
22666;DHT22;11499;49.486;11.104;2023-05-10T16:13:46;17.00;99.90
22666;DHT22;11499;49.486;11.104;2023-05-10T16:16:12;16.90;99.90
22666;DHT22;11499;49.486;11.104;2023-05-10T16:18:37;16.80;99.90
22666;DHT22;11499;49.486;11.104;2023-05-10T16:23:46;16.50;99.90
22666;DHT22;11499;49.486;11.104;2023-05-10T16:26:11;16.40;99.90
22666;DHT22;11499;49.486;11.104;2023-05-10T16:28:37;16.20;99.90
22666;DHT22;11499;49.486;11.104;2023-05-10T16:31:04;16.00;99.90
22666;DHT22;11499;49.486;11.104;2023-05-10T16:33:29;15.90;99.90
22666;DHT22;11499;49.486;11.104;2023-05-10T16:35:55;15.70;99.90
22666;DHT22;11499;49.486;11.104;2023-05-10T16:38:21;15.70;99.90
22666;DHT22;11499;49.486;11.104;2023-05-10T16:40:46;15.70;99.90
22666;DHT22;11499;49.486;11.104;2023-05-10T16:43:12;15.70;99.90
22666;DHT22;11499;49.486;11.104;2023-05-10T16:45:37;15.60;99.90
22666;DHT22;11499;49.486;11.104;2023-05-10T16:50:44;15.50;99.90
22666;DHT22;11499;49.486;11.104;2023-05-10T16:53:10;15.70;99.90
22666;DHT22;11499;49.486;11.104;2023-05-10T16:55:36;15.50;99.90
22666;DHT22;11499;49.486;11.104;2023-05-10T16:58:01;15.50;99.90
22666;DHT22;11499;49.486;11.104;2023-05-10T17:00:27;15.40;99.90
22666;DHT22;11499;49.486;11.104;2023-05-10T17:02:53;15.50;99.90
22666;DHT22;11499;49.486;11.104;2023-05-10T17:05:19;15.60;99.90
22666;DHT22;11499;49.486;11.104;2023-05-10T17:07:45;15.60;99.90